createdAt,value
2023-12-31T00:00:37.452Z,98866.66
2023-12-31T00:03:05.217Z,98878.19
2023-12-31T00:05:34.479Z,98878.91
2023-12-31T00:08:02.024Z,98879.81
2023-12-31T00:10:29.355Z,98877.11
2023-12-31T00:12:56.734Z,98881.95
2023-12-31T00:15:24.076Z,98879.92
2023-12-31T00:17:51.411Z,98882.52
2023-12-31T00:20:18.757Z,98890.46
2023-12-31T00:22:46.198Z,98885.98
2023-12-31T00:25:13.916Z,98894.94
2023-12-31T00:27:42.705Z,98894.08
2023-12-31T00:30:13.252Z,98901.66
2023-12-31T00:32:40.723Z,98901.48
2023-12-31T00:35:08.450Z,98903.55
2023-12-31T00:37:35.814Z,98903.38
2023-12-31T00:40:03.363Z,98900.96
2023-12-31T00:42:30.725Z,98901.48
2023-12-31T00:44:58.723Z,98906.99
2023-12-31T00:47:26.110Z,98903.20
2023-12-31T00:49:53.523Z,98909.26
2023-12-31T00:52:20.986Z,98905.27
2023-12-31T00:54:51.862Z,98902.01
2023-12-31T00:57:19.714Z,98896.48
2023-12-31T00:59:47.045Z,98895.98
2023-12-31T01:02:14.446Z,98905.63
2023-12-31T01:04:42.420Z,98901.32
2023-12-31T01:07:10.133Z,98898.39
2023-12-31T01:09:37.483Z,98901.16
2023-12-31T01:12:05.075Z,98896.15
2023-12-31T01:14:32.846Z,98893.73
2023-12-31T01:17:00.654Z,98882.01
2023-12-31T01:19:28.007Z,98877.36
2023-12-31T01:21:56.602Z,98874.60
2023-12-31T01:24:23.935Z,98873.05
2023-12-31T01:26:51.240Z,98867.55
2023-12-31T01:29:18.589Z,98867.89
2023-12-31T01:31:45.994Z,98869.61
2023-12-31T01:34:13.911Z,98872.20
2023-12-31T01:36:41.356Z,98869.77
2023-12-31T01:39:08.926Z,98866.68
2023-12-31T01:41:36.390Z,98866.51
2023-12-31T01:44:04.777Z,98868.58
2023-12-31T01:46:32.864Z,98867.55
2023-12-31T01:49:00.876Z,98869.42
2023-12-31T01:51:28.991Z,98868.91
2023-12-31T01:53:59.787Z,98864.44
2023-12-31T01:56:27.076Z,98861.85
2023-12-31T01:58:54.496Z,98870.30
2023-12-31T02:01:24.062Z,98871.51
2023-12-31T02:03:51.763Z,98875.98
2023-12-31T02:06:19.879Z,98883.40
2023-12-31T02:08:47.314Z,98880.11
2023-12-31T02:11:14.631Z,98878.56
2023-12-31T02:13:43.197Z,98872.02
2023-12-31T02:16:17.482Z,98872.71
2023-12-31T02:18:47.095Z,98869.77
2023-12-31T02:21:15.343Z,98869.09
2023-12-31T02:23:43.228Z,98871.69
2023-12-31T02:26:12.248Z,98874.08
2023-12-31T02:28:42.876Z,98876.34
2023-12-31T02:31:10.353Z,98875.48
2023-12-31T02:33:37.880Z,98879.44
2023-12-31T02:36:05.645Z,98881.84
2023-12-31T02:38:33.063Z,98882.53
2023-12-31T02:41:00.412Z,98883.41
2023-12-31T02:43:27.815Z,98883.39
2023-12-31T02:45:56.924Z,98881.85
2023-12-31T02:48:25.585Z,98889.25
2023-12-31T02:50:53.003Z,98886.15
2023-12-31T02:53:20.482Z,98888.22
2023-12-31T02:55:47.989Z,98894.23
2023-12-31T02:58:15.405Z,98893.21
2023-12-31T03:00:42.920Z,98890.30
2023-12-31T03:03:10.476Z,98891.48
2023-12-31T03:05:38.022Z,98894.58
2023-12-31T03:08:06.415Z,98893.04
2023-12-31T03:10:33.742Z,98900.09
2023-12-31T03:13:01.172Z,98903.02
2023-12-31T03:15:29.022Z,98909.21
2023-12-31T03:17:56.486Z,98905.95
2023-12-31T03:20:23.894Z,98908.86
2023-12-31T03:22:51.746Z,98908.02
2023-12-31T03:25:19.213Z,98911.11
2023-12-31T03:27:47.046Z,98914.05
2023-12-31T03:30:14.780Z,98910.94
2023-12-31T03:32:42.266Z,98912.13
2023-12-31T03:35:10.315Z,98912.65
2023-12-31T03:37:37.694Z,98912.66
2023-12-31T03:40:05.880Z,98914.88
2023-12-31T03:42:34.412Z,98913.33
2023-12-31T03:45:01.891Z,98916.44
2023-12-31T03:47:29.845Z,98917.45
2023-12-31T03:49:57.278Z,98919.00
2023-12-31T03:52:24.707Z,98922.98
2023-12-31T03:54:52.477Z,98928.13
2023-12-31T03:57:19.772Z,98925.73
2023-12-31T03:59:47.379Z,98933.83
2023-12-31T04:02:14.691Z,98931.91
2023-12-31T04:04:42.063Z,98928.30
2023-12-31T04:07:11.249Z,98927.60
2023-12-31T04:09:38.666Z,98922.59
2023-12-31T04:12:06.753Z,98919.65
2023-12-31T04:14:34.650Z,98919.81
2023-12-31T04:17:01.985Z,98921.69
2023-12-31T04:19:31.394Z,98921.69
2023-12-31T04:21:59.043Z,98918.23
2023-12-31T04:24:27.804Z,98921.67
2023-12-31T04:26:55.160Z,98920.46
2023-12-31T04:29:22.476Z,98921.84
2023-12-31T04:31:52.623Z,98928.04
2023-12-31T04:34:22.867Z,98931.99
2023-12-31T04:36:50.335Z,98935.09
2023-12-31T04:39:17.613Z,98933.71
2023-12-31T04:41:44.920Z,98933.89
2023-12-31T04:44:12.349Z,98933.01
2023-12-31T04:46:39.802Z,98929.23
2023-12-31T04:49:07.287Z,98927.84
2023-12-31T04:51:35.296Z,98925.26
2023-12-31T04:54:02.604Z,98934.02
2023-12-31T04:56:29.984Z,98936.23
2023-12-31T04:58:58.319Z,98935.00
2023-12-31T05:01:34.930Z,98936.34
2023-12-31T05:04:03.068Z,98942.86
2023-12-31T05:06:30.546Z,98938.17
2023-12-31T05:08:57.948Z,98939.02
2023-12-31T05:11:27.353Z,98942.09
2023-12-31T05:13:54.783Z,98937.95
2023-12-31T05:16:22.283Z,98940.00
2023-12-31T05:18:52.980Z,98940.52
2023-12-31T05:21:20.817Z,98941.52
2023-12-31T05:23:48.281Z,98942.37
2023-12-31T05:26:15.931Z,98948.36
2023-12-31T05:28:43.337Z,98951.27
2023-12-31T05:31:11.926Z,98951.08
2023-12-31T05:33:39.441Z,98948.47
2023-12-31T05:36:06.917Z,98951.20
2023-12-31T05:38:34.277Z,98947.23
2023-12-31T05:41:01.651Z,98946.67
2023-12-31T05:43:29.191Z,98941.84
2023-12-31T05:45:56.643Z,98937.88
2023-12-31T05:48:24.171Z,98934.77
2023-12-31T05:50:51.973Z,98938.01
2023-12-31T05:53:19.289Z,98937.45
2023-12-31T05:55:47.867Z,98944.98
2023-12-31T05:58:15.509Z,98940.30
2023-12-31T06:00:42.979Z,98943.88
2023-12-31T06:03:10.446Z,98943.69
2023-12-31T06:05:38.364Z,98948.30
2023-12-31T06:08:06.630Z,98946.06
2023-12-31T06:10:34.480Z,98952.23
2023-12-31T06:13:03.188Z,98954.23
2023-12-31T06:15:31.354Z,98957.23
2023-12-31T06:17:59.023Z,98958.35
2023-12-31T06:20:26.432Z,98959.30
2023-12-31T06:22:53.834Z,98966.95
2023-12-31T06:25:21.241Z,98968.91
2023-12-31T06:27:48.744Z,98966.27
2023-12-31T06:30:16.500Z,98968.08
2023-12-31T06:32:44.068Z,98965.83
2023-12-31T06:35:11.625Z,98964.26
2023-12-31T06:37:39.482Z,98968.01
2023-12-31T06:40:09.481Z,98972.23
2023-12-31T06:42:36.810Z,98975.96
2023-12-31T06:45:06.213Z,98980.23
2023-12-31T06:47:33.600Z,98977.27
2023-12-31T06:50:01.171Z,98975.02
2023-12-31T06:52:28.505Z,98969.48
2023-12-31T06:54:56.409Z,98969.45
2023-12-31T06:57:23.755Z,98969.41
2023-12-31T06:59:51.426Z,98966.31
2023-12-31T07:02:19.000Z,98968.86
2023-12-31T07:04:46.506Z,98966.10
2023-12-31T07:07:14.081Z,98966.27
2023-12-31T07:09:41.648Z,98969.17
2023-12-31T07:12:09.109Z,98964.52
2023-12-31T07:14:36.678Z,98963.14
2023-12-31T07:17:04.448Z,98966.36
2023-12-31T07:19:31.800Z,98962.23
2023-12-31T07:21:59.145Z,98966.34
2023-12-31T07:24:26.528Z,98970.63
2023-12-31T07:26:54.954Z,98968.75
2023-12-31T07:29:22.301Z,98971.14
2023-12-31T07:31:49.925Z,98977.32
2023-12-31T07:34:17.408Z,98976.47
2023-12-31T07:36:45.221Z,98978.70
2023-12-31T07:39:12.587Z,98981.98
2023-12-31T07:41:40.079Z,98987.65
2023-12-31T07:44:07.392Z,98989.16
2023-12-31T07:46:34.731Z,98991.89
2023-12-31T07:49:02.181Z,98988.30
2023-12-31T07:51:29.742Z,98983.65
2023-12-31T07:53:57.083Z,98982.94
2023-12-31T07:56:24.418Z,98980.36
2023-12-31T07:58:51.733Z,98982.73
2023-12-31T08:01:19.269Z,98988.55
2023-12-31T08:03:46.767Z,98985.64
2023-12-31T08:06:14.279Z,98984.25
2023-12-31T08:08:41.976Z,98990.80
2023-12-31T08:11:10.386Z,98993.09
2023-12-31T08:13:37.777Z,98993.65
2023-12-31T08:16:06.765Z,98992.50
2023-12-31T08:18:35.861Z,98992.08
2023-12-31T08:21:03.519Z,98986.50
2023-12-31T08:23:31.046Z,98988.84
2023-12-31T08:25:58.604Z,98992.73
2023-12-31T08:28:26.007Z,98996.79
2023-12-31T08:30:53.909Z,98996.73
2023-12-31T08:33:21.367Z,98996.96
2023-12-31T08:35:49.690Z,99000.64
2023-12-31T08:38:17.055Z,99005.67
2023-12-31T08:40:44.834Z,98999.02
2023-12-31T08:43:12.285Z,98999.92
2023-12-31T08:45:40.988Z,99000.66
2023-12-31T08:48:09.026Z,98999.19
2023-12-31T08:50:36.554Z,98999.07
2023-12-31T08:53:04.305Z,98994.50
2023-12-31T08:55:31.994Z,98991.64
2023-12-31T08:57:59.784Z,98987.95
2023-12-31T09:00:27.291Z,98989.55
2023-12-31T09:02:55.787Z,98981.70
2023-12-31T09:05:24.099Z,98982.44
2023-12-31T09:07:51.635Z,98975.97
2023-12-31T09:10:19.218Z,98969.14
2023-12-31T09:12:46.688Z,98971.24
2023-12-31T09:15:14.090Z,98970.27
2023-12-31T09:17:41.465Z,98968.59
2023-12-31T09:20:10.042Z,98965.17
2023-12-31T09:22:37.859Z,98964.20
2023-12-31T09:25:07.792Z,98958.22
2023-12-31T09:27:36.042Z,98956.89
2023-12-31T09:30:03.622Z,98955.21
2023-12-31T09:32:31.145Z,98954.05
2023-12-31T09:34:58.608Z,98953.22
2023-12-31T09:37:26.149Z,98957.91
2023-12-31T09:39:53.600Z,98954.14
2023-12-31T09:42:46.115Z,98951.24
2023-12-31T09:45:14.080Z,98940.76
2023-12-31T09:47:42.675Z,98940.42
2023-12-31T09:50:11.009Z,98939.05
2023-12-31T09:52:38.586Z,98936.81
2023-12-31T09:55:06.953Z,98940.61
2023-12-31T09:57:37.379Z,98935.27
2023-12-31T10:00:06.167Z,98931.50
2023-12-31T10:02:37.780Z,98927.02
2023-12-31T10:06:15.485Z,98924.75
2023-12-31T10:08:43.134Z,98918.19
2023-12-31T10:11:10.523Z,98914.04
2023-12-31T10:13:37.864Z,98912.63
2023-12-31T10:16:13.686Z,98909.50
2023-12-31T10:18:41.637Z,98905.34
2023-12-31T10:21:10.933Z,98906.69
2023-12-31T10:23:38.375Z,98902.02
2023-12-31T10:26:05.779Z,98902.85
2023-12-31T10:28:33.159Z,98899.55
2023-12-31T10:31:00.586Z,98890.36
2023-12-31T10:33:28.999Z,98885.51
2023-12-31T10:36:06.656Z,98884.45
2023-12-31T10:38:47.484Z,98884.92
2023-12-31T10:41:26.015Z,98880.92
2023-12-31T10:43:54.605Z,98877.59
2023-12-31T10:46:22.016Z,98874.96
2023-12-31T10:49:01.559Z,98869.39
2023-12-31T10:51:29.120Z,98863.48
2023-12-31T10:53:59.107Z,98852.53
2023-12-31T10:56:29.368Z,98850.58
2023-12-31T10:58:56.668Z,98845.34
2023-12-31T11:01:24.018Z,98844.10
2023-12-31T11:03:53.305Z,98841.30
2023-12-31T11:06:20.698Z,98836.23
2023-12-31T11:08:48.058Z,98833.95
2023-12-31T11:11:15.754Z,98830.95
2023-12-31T11:13:54.015Z,98828.14
2023-12-31T11:16:42.879Z,98826.39
2023-12-31T11:19:16.289Z,98819.08
2023-12-31T11:21:55.401Z,98822.29
2023-12-31T11:24:25.335Z,98814.48
2023-12-31T11:27:08.836Z,98814.76
2023-12-31T11:29:36.638Z,98812.61
2023-12-31T11:32:05.980Z,98817.41
2023-12-31T11:34:38.937Z,98816.34
2023-12-31T11:37:08.186Z,98812.48
2023-12-31T11:39:35.523Z,98812.79
2023-12-31T11:42:13.431Z,98806.86
2023-12-31T11:44:45.669Z,98802.11
2023-12-31T11:47:22.818Z,98796.17
2023-12-31T11:49:54.315Z,98787.58
2023-12-31T11:52:22.628Z,98786.61
2023-12-31T11:54:52.232Z,98782.83
2023-12-31T11:57:20.281Z,98779.94
2023-12-31T11:59:47.633Z,98772.52
2023-12-31T12:02:16.095Z,98772.59
2023-12-31T12:04:43.647Z,98771.09
2023-12-31T12:07:11.043Z,98769.22
2023-12-31T12:09:38.489Z,98769.23
2023-12-31T12:12:07.221Z,98765.81
2023-12-31T12:14:35.253Z,98760.67
2023-12-31T12:17:05.426Z,98760.95
2023-12-31T12:19:34.052Z,98758.66
2023-12-31T12:22:02.705Z,98753.73
2023-12-31T12:24:30.070Z,98752.67
2023-12-31T12:26:59.515Z,98752.29
2023-12-31T12:29:28.379Z,98753.51
2023-12-31T12:31:55.924Z,98751.41
2023-12-31T12:34:23.497Z,98750.55
2023-12-31T12:36:51.235Z,98748.67
2023-12-31T12:39:21.510Z,98747.63
2023-12-31T12:41:50.093Z,98749.00
2023-12-31T12:44:18.258Z,98740.83
2023-12-31T12:46:47.519Z,98739.74
2023-12-31T12:49:15.067Z,98741.11
2023-12-31T12:51:43.608Z,98738.30
2023-12-31T12:54:11.112Z,98736.02
2023-12-31T12:56:38.475Z,98735.15
2023-12-31T12:59:05.840Z,98737.27
2023-12-31T13:01:33.388Z,98731.96
2023-12-31T13:04:00.882Z,98734.83
2023-12-31T13:06:28.205Z,98736.52
2023-12-31T13:08:55.750Z,98737.37
2023-12-31T13:11:23.149Z,98736.96
2023-12-31T13:13:50.488Z,98731.70
2023-12-31T13:16:22.887Z,98734.91
2023-12-31T13:18:52.363Z,98741.60
2023-12-31T13:21:19.994Z,98739.27
2023-12-31T13:23:47.501Z,98736.90
2023-12-31T13:26:14.927Z,98736.77
2023-12-31T13:28:42.449Z,98730.91
2023-12-31T13:31:09.956Z,98728.52
2023-12-31T13:33:37.697Z,98726.16
2023-12-31T13:36:05.801Z,98727.95
2023-12-31T13:38:33.132Z,98728.70
2023-12-31T13:41:00.535Z,98724.81
2023-12-31T13:43:28.140Z,98727.64
2023-12-31T13:45:56.164Z,98728.77
2023-12-31T13:48:23.626Z,98728.69
2023-12-31T13:50:51.162Z,98730.50
2023-12-31T13:53:19.318Z,98724.86
2023-12-31T13:55:46.773Z,98722.86
2023-12-31T13:58:14.134Z,98720.85
2023-12-31T14:00:52.004Z,98721.95
2023-12-31T14:03:20.262Z,98720.98
2023-12-31T14:05:47.951Z,98724.81
2023-12-31T14:08:16.132Z,98722.09
2023-12-31T14:10:43.617Z,98723.35
2023-12-31T14:13:11.175Z,98727.19
2023-12-31T14:15:38.535Z,98725.86
2023-12-31T14:18:06.146Z,98724.36
2023-12-31T14:20:33.612Z,98726.48
2023-12-31T14:23:01.162Z,98724.29
2023-12-31T14:25:28.667Z,98717.58
2023-12-31T14:27:56.027Z,98720.90
2023-12-31T14:30:23.526Z,98716.27
2023-12-31T14:32:51.047Z,98716.63
2023-12-31T14:35:18.634Z,98714.92
2023-12-31T14:37:46.005Z,98718.77
2023-12-31T14:40:13.437Z,98711.54
2023-12-31T14:42:40.792Z,98716.23
2023-12-31T14:48:06.609Z,98705.55
2023-12-31T14:50:36.122Z,98707.19
2023-12-31T14:53:04.120Z,98707.23
2023-12-31T14:55:31.880Z,98706.62
2023-12-31T14:57:59.713Z,98706.71
2023-12-31T15:00:27.153Z,98704.71
2023-12-31T15:02:54.523Z,98697.54
2023-12-31T15:05:22.453Z,98692.95
2023-12-31T15:07:50.066Z,98686.27
2023-12-31T15:10:18.961Z,98684.10
2023-12-31T15:12:46.396Z,98682.42
2023-12-31T15:15:13.798Z,98681.80
2023-12-31T15:17:41.207Z,98681.53
2023-12-31T15:20:12.278Z,98682.98
2023-12-31T15:22:39.684Z,98677.85
2023-12-31T15:25:07.579Z,98673.09
2023-12-31T15:27:35.019Z,98668.16
2023-12-31T15:30:08.352Z,98664.07
2023-12-31T15:32:36.144Z,98668.95
2023-12-31T15:35:04.676Z,98662.29
2023-12-31T15:37:32.356Z,98661.30
2023-12-31T15:39:59.711Z,98659.94
2023-12-31T15:42:27.717Z,98652.90
2023-12-31T15:44:55.992Z,98648.30
2023-12-31T15:47:27.364Z,98650.90
2023-12-31T15:49:54.970Z,98650.24
2023-12-31T15:52:22.795Z,98652.86
2023-12-31T15:54:50.349Z,98648.41
2023-12-31T15:57:17.690Z,98645.52
2023-12-31T15:59:45.364Z,98650.17
2023-12-31T16:02:14.884Z,98649.33
2023-12-31T16:04:42.225Z,98654.33
2023-12-31T16:07:09.650Z,98654.34
2023-12-31T16:09:37.042Z,98659.52
2023-12-31T16:12:05.311Z,98656.92
2023-12-31T16:14:32.677Z,98659.69
2023-12-31T16:17:00.121Z,98654.89
2023-12-31T16:19:27.777Z,98652.99
2023-12-31T16:21:55.221Z,98651.11
2023-12-31T16:24:22.667Z,98651.29
2023-12-31T16:26:50.030Z,98651.80
2023-12-31T16:29:17.369Z,98653.87
2023-12-31T16:31:44.769Z,98653.01
2023-12-31T16:34:12.344Z,98648.89
2023-12-31T16:36:40.287Z,98649.92
2023-12-31T16:39:07.941Z,98653.53
2023-12-31T16:41:35.512Z,98640.45
2023-12-31T16:44:02.917Z,98649.05
2023-12-31T16:46:30.313Z,98653.00
2023-12-31T16:48:57.727Z,98647.33
2023-12-31T16:51:26.651Z,98642.52
2023-12-31T16:53:56.306Z,98640.43
2023-12-31T16:56:23.714Z,98647.65
2023-12-31T16:58:51.243Z,98651.41
2023-12-31T17:01:19.588Z,98644.19
2023-12-31T17:03:50.370Z,98641.92
2023-12-31T17:06:18.397Z,98644.66
2023-12-31T17:08:46.904Z,98636.05
2023-12-31T17:11:14.277Z,98635.86
2023-12-31T17:13:41.973Z,98642.56
2023-12-31T17:16:10.767Z,98635.84
2023-12-31T17:18:38.218Z,98632.38
2023-12-31T17:21:05.738Z,98629.96
2023-12-31T17:23:33.530Z,98628.92
2023-12-31T17:26:01.044Z,98627.88
2023-12-31T17:28:28.449Z,98628.20
2023-12-31T17:30:56.897Z,98630.95
2023-12-31T17:33:24.705Z,98629.73
2023-12-31T17:35:52.865Z,98627.16
2023-12-31T17:38:20.413Z,98637.29
2023-12-31T17:40:50.517Z,98630.41
2023-12-31T17:43:18.808Z,98627.48
2023-12-31T17:45:46.205Z,98616.98
2023-12-31T17:48:13.603Z,98614.23
2023-12-31T17:50:41.073Z,98608.20
2023-12-31T17:53:08.461Z,98610.42
2023-12-31T17:55:35.892Z,98609.38
2023-12-31T17:58:03.959Z,98616.40
2023-12-31T18:00:31.672Z,98613.46
2023-12-31T18:02:59.866Z,98613.29
2023-12-31T18:05:27.381Z,98612.41
2023-12-31T18:07:54.912Z,98613.42
2023-12-31T18:10:23.184Z,98612.52
2023-12-31T18:12:52.128Z,98609.94
2023-12-31T18:15:19.680Z,98609.57
2023-12-31T18:17:47.096Z,98608.35
2023-12-31T18:20:14.724Z,98610.04
2023-12-31T18:22:43.520Z,98613.29
2023-12-31T18:25:10.920Z,98605.89
2023-12-31T18:27:38.574Z,98604.66
2023-12-31T18:30:12.112Z,98607.22
2023-12-31T18:32:47.709Z,98606.86
2023-12-31T18:35:15.155Z,98613.20
2023-12-31T18:37:42.538Z,98615.42
2023-12-31T18:40:10.606Z,98620.91
2023-12-31T18:42:37.912Z,98617.45
2023-12-31T18:45:06.047Z,98614.68
2023-12-31T18:47:33.431Z,98621.00
2023-12-31T18:50:00.884Z,98615.13
2023-12-31T18:52:28.339Z,98599.80
2023-12-31T18:54:55.800Z,98592.73
2023-12-31T18:57:23.423Z,98593.70
2023-12-31T18:59:50.760Z,98592.45
2023-12-31T19:02:19.752Z,98586.03
2023-12-31T19:04:47.321Z,98575.52
2023-12-31T19:07:14.760Z,98580.60
2023-12-31T19:09:42.137Z,98579.73
2023-12-31T19:12:10.001Z,98581.92
2023-12-31T19:14:38.803Z,98579.80
2023-12-31T19:17:06.295Z,98577.37
2023-12-31T19:19:35.445Z,98576.98
2023-12-31T19:22:03.032Z,98571.15
2023-12-31T19:24:30.388Z,98563.75
2023-12-31T19:26:58.141Z,98561.66
2023-12-31T19:29:25.607Z,98563.02
2023-12-31T19:31:53.320Z,98559.56
2023-12-31T19:34:21.112Z,98562.45
2023-12-31T19:36:48.650Z,98560.38
2023-12-31T19:39:15.986Z,98559.01
2023-12-31T19:41:43.381Z,98556.10
2023-12-31T19:44:27.983Z,98555.25
2023-12-31T19:46:58.212Z,98555.59
2023-12-31T19:49:25.647Z,98560.55
2023-12-31T19:51:53.611Z,98564.69
2023-12-31T19:54:21.045Z,98558.91
2023-12-31T19:56:48.462Z,98563.60
2023-12-31T19:59:17.693Z,98558.35
2023-12-31T20:01:45.376Z,98560.47
2023-12-31T20:04:12.806Z,98559.84
2023-12-31T20:06:40.986Z,98551.99
2023-12-31T20:09:09.061Z,98545.00
2023-12-31T20:11:36.546Z,98543.83
2023-12-31T20:14:04.451Z,98542.98
2023-12-31T20:16:32.631Z,98538.38
2023-12-31T20:19:00.215Z,98535.98
2023-12-31T20:21:27.735Z,98528.64
2023-12-31T20:23:57.204Z,98527.31
2023-12-31T20:26:24.548Z,98525.11
2023-12-31T20:28:51.883Z,98530.63
2023-12-31T20:31:19.472Z,98527.67
2023-12-31T20:33:46.972Z,98531.25
2023-12-31T20:36:14.395Z,98528.64
2023-12-31T20:38:42.104Z,98527.45
2023-12-31T20:41:13.436Z,98527.12
2023-12-31T20:43:45.907Z,98520.97
2023-12-31T20:46:13.488Z,98523.73
2023-12-31T20:48:43.107Z,98523.76
2023-12-31T20:51:10.591Z,98522.07
2023-12-31T20:53:38.144Z,98522.94
2023-12-31T20:56:09.229Z,98527.39
2023-12-31T20:58:37.353Z,98520.00
2023-12-31T21:01:05.475Z,98519.63
2023-12-31T21:03:32.933Z,98514.64
2023-12-31T21:06:01.792Z,98514.45
2023-12-31T21:08:29.392Z,98512.70
2023-12-31T21:10:58.096Z,98502.73
